sensor_id;sensor_type;location;lat;lon;timestamp;P1;durP1;ratioP1;P2;durP2;ratioP2
9722;SDS011;4900;49.306;8.500;2023-05-10T00:01:04;0.90;;;0.90;;
9722;SDS011;4900;49.306;8.500;2023-05-10T00:03:29;1.15;;;1.00;;
9722;SDS011;4900;49.306;8.500;2023-05-10T00:05:54;0.95;;;0.90;;
9722;SDS011;4900;49.306;8.500;2023-05-10T00:08:20;1.10;;;1.00;;
9722;SDS011;4900;49.306;8.500;2023-05-10T00:10:45;0.85;;;0.80;;
9722;SDS011;4900;49.306;8.500;2023-05-10T00:13:11;1.10;;;1.00;;
9722;SDS011;4900;49.306;8.500;2023-05-10T00:15:36;1.05;;;0.95;;
9722;SDS011;4900;49.306;8.500;2023-05-10T00:18:02;1.10;;;1.00;;
9722;SDS011;4900;49.306;8.500;2023-05-10T00:20:27;1.00;;;1.00;;
9722;SDS011;4900;49.306;8.500;2023-05-10T00:22:53;1.98;;;1.15;;
9722;SDS011;4900;49.306;8.500;2023-05-10T00:25:18;1.42;;;1.25;;
9722;SDS011;4900;49.306;8.500;2023-05-10T00:27:43;1.20;;;1.10;;
9722;SDS011;4900;49.306;8.500;2023-05-10T00:30:09;1.10;;;1.00;;
9722;SDS011;4900;49.306;8.500;2023-05-10T00:32:35;1.25;;;1.00;;
9722;SDS011;4900;49.306;8.500;2023-05-10T00:35:00;0.90;;;0.90;;
9722;SDS011;4900;49.306;8.500;2023-05-10T00:37:26;1.10;;;1.00;;
9722;SDS011;4900;49.306;8.500;2023-05-10T00:39:51;0.80;;;0.80;;
9722;SDS011;4900;49.306;8.500;2023-05-10T00:42:16;0.90;;;0.88;;
9722;SDS011;4900;49.306;8.500;2023-05-10T00:44:42;1.00;;;0.90;;
9722;SDS011;4900;49.306;8.500;2023-05-10T00:47:07;1.00;;;0.90;;
9722;SDS011;4900;49.306;8.500;2023-05-10T00:49:33;0.88;;;0.82;;
9722;SDS011;4900;49.306;8.500;2023-05-10T00:52:00;0.82;;;0.82;;
9722;SDS011;4900;49.306;8.500;2023-05-10T00:54:27;0.82;;;0.82;;
9722;SDS011;4900;49.306;8.500;2023-05-10T00:56:52;0.75;;;0.75;;
9722;SDS011;4900;49.306;8.500;2023-05-10T00:59:18;0.90;;;0.90;;
9722;SDS011;4900;49.306;8.500;2023-05-10T01:01:45;1.17;;;1.08;;
9722;SDS011;4900;49.306;8.500;2023-05-10T01:04:11;0.90;;;0.90;;
9722;SDS011;4900;49.306;8.500;2023-05-10T01:06:38;1.10;;;1.00;;
9722;SDS011;4900;49.306;8.500;2023-05-10T01:09:05;1.25;;;1.15;;
9722;SDS011;4900;49.306;8.500;2023-05-10T01:11:32;1.20;;;1.10;;
9722;SDS011;4900;49.306;8.500;2023-05-10T01:13:59;1.20;;;1.10;;
9722;SDS011;4900;49.306;8.500;2023-05-10T01:16:25;1.38;;;1.00;;
9722;SDS011;4900;49.306;8.500;2023-05-10T01:18:51;1.20;;;1.10;;
9722;SDS011;4900;49.306;8.500;2023-05-10T01:32:20;1.13;;;1.02;;
9722;SDS011;4900;49.306;8.500;2023-05-10T01:34:54;1.30;;;1.20;;
9722;SDS011;4900;49.306;8.500;2023-05-10T01:37:30;1.35;;;1.23;;
9722;SDS011;4900;49.306;8.500;2023-05-10T01:40:03;1.20;;;1.10;;
9722;SDS011;4900;49.306;8.500;2023-05-10T01:42:44;1.27;;;1.15;;
9722;SDS011;4900;49.306;8.500;2023-05-10T01:45:36;1.17;;;1.08;;
9722;SDS011;4900;49.306;8.500;2023-05-10T01:48:08;1.73;;;1.38;;
9722;SDS011;4900;49.306;8.500;2023-05-10T01:50:36;2.38;;;1.80;;
9722;SDS011;4900;49.306;8.500;2023-05-10T01:53:06;1.85;;;1.50;;
9722;SDS011;4900;49.306;8.500;2023-05-10T01:55:34;2.05;;;1.40;;
9722;SDS011;4900;49.306;8.500;2023-05-10T01:58:08;2.00;;;1.42;;
9722;SDS011;4900;49.306;8.500;2023-05-10T02:00:36;1.90;;;1.50;;
9722;SDS011;4900;49.306;8.500;2023-05-10T02:03:07;2.83;;;1.60;;
9722;SDS011;4900;49.306;8.500;2023-05-10T02:05:34;1.20;;;1.10;;
9722;SDS011;4900;49.306;8.500;2023-05-10T02:08:01;1.33;;;1.10;;
9722;SDS011;4900;49.306;8.500;2023-05-10T02:10:30;1.67;;;1.50;;
9722;SDS011;4900;49.306;8.500;2023-05-10T02:12:58;1.67;;;1.40;;
9722;SDS011;4900;49.306;8.500;2023-05-10T02:15:24;2.05;;;1.42;;
9722;SDS011;4900;49.306;8.500;2023-05-10T02:17:51;1.85;;;1.70;;
9722;SDS011;4900;49.306;8.500;2023-05-10T02:20:19;2.20;;;1.60;;
9722;SDS011;4900;49.306;8.500;2023-05-10T02:22:45;1.55;;;1.40;;
9722;SDS011;4900;49.306;8.500;2023-05-10T02:25:13;1.40;;;1.30;;
9722;SDS011;4900;49.306;8.500;2023-05-10T02:27:39;1.33;;;1.23;;
9722;SDS011;4900;49.306;8.500;2023-05-10T02:30:07;1.48;;;1.38;;
9722;SDS011;4900;49.306;8.500;2023-05-10T02:32:34;1.30;;;1.20;;
9722;SDS011;4900;49.306;8.500;2023-05-10T02:35:01;2.30;;;1.38;;
9722;SDS011;4900;49.306;8.500;2023-05-10T02:37:28;1.13;;;1.02;;
9722;SDS011;4900;49.306;8.500;2023-05-10T02:39:54;1.92;;;1.30;;
9722;SDS011;4900;49.306;8.500;2023-05-10T02:42:23;1.30;;;1.20;;
9722;SDS011;4900;49.306;8.500;2023-05-10T02:44:52;1.50;;;1.40;;
9722;SDS011;4900;49.306;8.500;2023-05-10T02:47:21;1.52;;;1.42;;
9722;SDS011;4900;49.306;8.500;2023-05-10T02:49:46;1.40;;;1.30;;
9722;SDS011;4900;49.306;8.500;2023-05-10T02:52:12;1.80;;;1.45;;
9722;SDS011;4900;49.306;8.500;2023-05-10T02:54:45;2.17;;;1.45;;
9722;SDS011;4900;49.306;8.500;2023-05-10T02:57:15;1.98;;;1.60;;
9722;SDS011;4900;49.306;8.500;2023-05-10T02:59:44;1.60;;;1.50;;
9722;SDS011;4900;49.306;8.500;2023-05-10T03:02:10;2.88;;;1.73;;
9722;SDS011;4900;49.306;8.500;2023-05-10T03:04:39;1.50;;;1.40;;
9722;SDS011;4900;49.306;8.500;2023-05-10T03:07:05;2.40;;;1.88;;
9722;SDS011;4900;49.306;8.500;2023-05-10T03:09:31;1.88;;;1.70;;
9722;SDS011;4900;49.306;8.500;2023-05-10T03:12:02;1.45;;;1.35;;
9722;SDS011;4900;49.306;8.500;2023-05-10T03:17:23;1.75;;;1.65;;
9722;SDS011;4900;49.306;8.500;2023-05-10T03:20:09;1.67;;;1.58;;
9722;SDS011;4900;49.306;8.500;2023-05-10T03:22:47;1.65;;;1.52;;
9722;SDS011;4900;49.306;8.500;2023-05-10T03:25:16;2.72;;;1.67;;
9722;SDS011;4900;49.306;8.500;2023-05-10T03:27:43;1.88;;;1.70;;
9722;SDS011;4900;49.306;8.500;2023-05-10T03:30:10;1.75;;;1.50;;
9722;SDS011;4900;49.306;8.500;2023-05-10T03:32:37;1.55;;;1.45;;
9722;SDS011;4900;49.306;8.500;2023-05-10T03:35:07;1.45;;;1.35;;
9722;SDS011;4900;49.306;8.500;2023-05-10T03:37:37;1.70;;;1.60;;
9722;SDS011;4900;49.306;8.500;2023-05-10T03:40:03;1.63;;;1.52;;
9722;SDS011;4900;49.306;8.500;2023-05-10T03:42:29;1.70;;;1.60;;
9722;SDS011;4900;49.306;8.500;2023-05-10T03:44:54;1.58;;;1.48;;
9722;SDS011;4900;49.306;8.500;2023-05-10T03:47:20;1.40;;;1.30;;
9722;SDS011;4900;49.306;8.500;2023-05-10T03:49:45;2.05;;;1.85;;
9722;SDS011;4900;49.306;8.500;2023-05-10T03:52:11;1.70;;;1.60;;
9722;SDS011;4900;49.306;8.500;2023-05-10T03:54:37;1.55;;;1.45;;
9722;SDS011;4900;49.306;8.500;2023-05-10T03:57:02;1.70;;;1.60;;
9722;SDS011;4900;49.306;8.500;2023-05-10T03:59:28;2.17;;;1.80;;
9722;SDS011;4900;49.306;8.500;2023-05-10T04:01:53;1.65;;;1.52;;
9722;SDS011;4900;49.306;8.500;2023-05-10T04:04:19;1.83;;;1.63;;
9722;SDS011;4900;49.306;8.500;2023-05-10T04:06:45;2.00;;;1.50;;
9722;SDS011;4900;49.306;8.500;2023-05-10T04:09:11;2.03;;;1.83;;
9722;SDS011;4900;49.306;8.500;2023-05-10T04:11:36;1.98;;;1.80;;
9722;SDS011;4900;49.306;8.500;2023-05-10T04:14:02;2.20;;;2.00;;
9722;SDS011;4900;49.306;8.500;2023-05-10T04:16:27;2.00;;;1.80;;
9722;SDS011;4900;49.306;8.500;2023-05-10T04:18:53;1.80;;;1.70;;
9722;SDS011;4900;49.306;8.500;2023-05-10T04:21:18;1.65;;;1.55;;
9722;SDS011;4900;49.306;8.500;2023-05-10T04:23:44;2.03;;;1.83;;
9722;SDS011;4900;49.306;8.500;2023-05-10T04:26:09;2.00;;;1.77;;
9722;SDS011;4900;49.306;8.500;2023-05-10T04:28:35;1.60;;;1.50;;
9722;SDS011;4900;49.306;8.500;2023-05-10T04:31:01;2.17;;;1.98;;
9722;SDS011;4900;49.306;8.500;2023-05-10T04:33:31;1.67;;;1.58;;
9722;SDS011;4900;49.306;8.500;2023-05-10T04:35:56;1.60;;;1.50;;
9722;SDS011;4900;49.306;8.500;2023-05-10T04:38:22;1.92;;;1.73;;
9722;SDS011;4900;49.306;8.500;2023-05-10T04:40:48;1.75;;;1.65;;
9722;SDS011;4900;49.306;8.500;2023-05-10T04:43:13;2.47;;;2.28;;
9722;SDS011;4900;49.306;8.500;2023-05-10T04:45:39;2.40;;;2.20;;
9722;SDS011;4900;49.306;8.500;2023-05-10T04:48:04;2.42;;;2.22;;
9722;SDS011;4900;49.306;8.500;2023-05-10T04:50:30;2.80;;;2.60;;
9722;SDS011;4900;49.306;8.500;2023-05-10T04:52:55;3.13;;;2.80;;
9722;SDS011;4900;49.306;8.500;2023-05-10T04:55:21;2.90;;;2.60;;
9722;SDS011;4900;49.306;8.500;2023-05-10T04:57:46;2.85;;;2.60;;
9722;SDS011;4900;49.306;8.500;2023-05-10T05:00:12;3.47;;;2.55;;
9722;SDS011;4900;49.306;8.500;2023-05-10T05:02:38;3.20;;;2.90;;
9722;SDS011;4900;49.306;8.500;2023-05-10T05:05:03;3.13;;;2.83;;
9722;SDS011;4900;49.306;8.500;2023-05-10T05:07:29;2.97;;;2.58;;
9722;SDS011;4900;49.306;8.500;2023-05-10T05:09:55;2.60;;;2.40;;
9722;SDS011;4900;49.306;8.500;2023-05-10T05:12:21;2.75;;;2.42;;
9722;SDS011;4900;49.306;8.500;2023-05-10T05:14:46;2.83;;;2.40;;
9722;SDS011;4900;49.306;8.500;2023-05-10T05:17:12;3.00;;;2.70;;
9722;SDS011;4900;49.306;8.500;2023-05-10T05:19:37;3.10;;;2.70;;
9722;SDS011;4900;49.306;8.500;2023-05-10T05:22:03;3.15;;;2.85;;
9722;SDS011;4900;49.306;8.500;2023-05-10T05:24:28;2.75;;;2.55;;
9722;SDS011;4900;49.306;8.500;2023-05-10T05:26:53;3.38;;;2.92;;
9722;SDS011;4900;49.306;8.500;2023-05-10T05:29:19;2.80;;;2.50;;
9722;SDS011;4900;49.306;8.500;2023-05-10T05:31:44;2.83;;;2.63;;
9722;SDS011;4900;49.306;8.500;2023-05-10T05:34:10;3.08;;;2.78;;
9722;SDS011;4900;49.306;8.500;2023-05-10T05:36:36;2.97;;;2.67;;
9722;SDS011;4900;49.306;8.500;2023-05-10T05:39:03;3.20;;;2.90;;
9722;SDS011;4900;49.306;8.500;2023-05-10T05:41:29;2.70;;;2.50;;
9722;SDS011;4900;49.306;8.500;2023-05-10T05:43:54;3.42;;;2.92;;
9722;SDS011;4900;49.306;8.500;2023-05-10T05:46:20;4.18;;;3.10;;
9722;SDS011;4900;49.306;8.500;2023-05-10T05:48:45;3.58;;;2.90;;
9722;SDS011;4900;49.306;8.500;2023-05-10T05:51:10;3.03;;;2.65;;
9722;SDS011;4900;49.306;8.500;2023-05-10T05:53:36;3.08;;;2.78;;
9722;SDS011;4900;49.306;8.500;2023-05-10T05:56:01;3.13;;;2.83;;
9722;SDS011;4900;49.306;8.500;2023-05-10T05:58:27;3.25;;;2.67;;
9722;SDS011;4900;49.306;8.500;2023-05-10T06:00:53;4.90;;;2.63;;
9722;SDS011;4900;49.306;8.500;2023-05-10T06:03:19;4.03;;;2.90;;
9722;SDS011;4900;49.306;8.500;2023-05-10T06:05:44;2.95;;;2.63;;
9722;SDS011;4900;49.306;8.500;2023-05-10T06:08:10;3.30;;;3.00;;
9722;SDS011;4900;49.306;8.500;2023-05-10T06:10:35;3.22;;;2.92;;
9722;SDS011;4900;49.306;8.500;2023-05-10T06:13:04;3.70;;;2.70;;
9722;SDS011;4900;49.306;8.500;2023-05-10T06:15:29;3.72;;;2.70;;
9722;SDS011;4900;49.306;8.500;2023-05-10T06:17:55;3.08;;;2.78;;
9722;SDS011;4900;49.306;8.500;2023-05-10T06:20:21;2.55;;;2.35;;
9722;SDS011;4900;49.306;8.500;2023-05-10T06:22:46;2.60;;;2.40;;
9722;SDS011;4900;49.306;8.500;2023-05-10T06:25:12;2.80;;;2.60;;
9722;SDS011;4900;49.306;8.500;2023-05-10T06:27:39;2.50;;;2.30;;
9722;SDS011;4900;49.306;8.500;2023-05-10T06:30:04;3.50;;;2.70;;
9722;SDS011;4900;49.306;8.500;2023-05-10T06:32:30;2.80;;;2.60;;
9722;SDS011;4900;49.306;8.500;2023-05-10T06:34:56;2.70;;;2.50;;
9722;SDS011;4900;49.306;8.500;2023-05-10T06:37:21;3.38;;;2.40;;
9722;SDS011;4900;49.306;8.500;2023-05-10T06:39:47;2.60;;;2.40;;
9722;SDS011;4900;49.306;8.500;2023-05-10T06:42:12;2.67;;;2.33;;
9722;SDS011;4900;49.306;8.500;2023-05-10T06:44:38;2.10;;;1.90;;
9722;SDS011;4900;49.306;8.500;2023-05-10T06:47:03;2.28;;;2.08;;
9722;SDS011;4900;49.306;8.500;2023-05-10T06:49:29;2.42;;;2.20;;
9722;SDS011;4900;49.306;8.500;2023-05-10T06:51:57;1.80;;;1.70;;
9722;SDS011;4900;49.306;8.500;2023-05-10T06:54:23;1.90;;;1.70;;
9722;SDS011;4900;49.306;8.500;2023-05-10T06:56:49;2.03;;;1.85;;
9722;SDS011;4900;49.306;8.500;2023-05-10T06:59:14;2.03;;;1.85;;
9722;SDS011;4900;49.306;8.500;2023-05-10T07:01:41;2.50;;;1.77;;
9722;SDS011;4900;49.306;8.500;2023-05-10T07:04:07;2.30;;;2.10;;
9722;SDS011;4900;49.306;8.500;2023-05-10T07:06:33;2.20;;;1.90;;
9722;SDS011;4900;49.306;8.500;2023-05-10T07:08:58;2.47;;;1.85;;
9722;SDS011;4900;49.306;8.500;2023-05-10T07:11:24;1.90;;;1.80;;
9722;SDS011;4900;49.306;8.500;2023-05-10T07:13:49;2.03;;;1.83;;
9722;SDS011;4900;49.306;8.500;2023-05-10T07:16:15;2.63;;;1.75;;
9722;SDS011;4900;49.306;8.500;2023-05-10T07:18:40;2.42;;;1.98;;
9722;SDS011;4900;49.306;8.500;2023-05-10T07:21:06;3.15;;;1.80;;
9722;SDS011;4900;49.306;8.500;2023-05-10T07:23:31;1.70;;;1.60;;
9722;SDS011;4900;49.306;8.500;2023-05-10T07:25:57;1.83;;;1.70;;
9722;SDS011;4900;49.306;8.500;2023-05-10T07:28:22;1.95;;;1.75;;
9722;SDS011;4900;49.306;8.500;2023-05-10T07:30:49;2.55;;;1.83;;
9722;SDS011;4900;49.306;8.500;2023-05-10T07:33:14;1.98;;;1.77;;
9722;SDS011;4900;49.306;8.500;2023-05-10T07:35:40;2.85;;;2.05;;
9722;SDS011;4900;49.306;8.500;2023-05-10T07:38:06;1.63;;;1.52;;
9722;SDS011;4900;49.306;8.500;2023-05-10T07:40:31;3.53;;;1.65;;
9722;SDS011;4900;49.306;8.500;2023-05-10T07:42:57;1.60;;;1.50;;
9722;SDS011;4900;49.306;8.500;2023-05-10T07:45:22;1.60;;;1.50;;
9722;SDS011;4900;49.306;8.500;2023-05-10T07:47:48;1.38;;;1.27;;
9722;SDS011;4900;49.306;8.500;2023-05-10T07:50:14;1.60;;;1.40;;
9722;SDS011;4900;49.306;8.500;2023-05-10T07:52:39;3.20;;;1.48;;
9722;SDS011;4900;49.306;8.500;2023-05-10T07:55:05;1.48;;;1.30;;
9722;SDS011;4900;49.306;8.500;2023-05-10T07:57:33;1.65;;;1.45;;
9722;SDS011;4900;49.306;8.500;2023-05-10T07:59:59;2.33;;;1.50;;
9722;SDS011;4900;49.306;8.500;2023-05-10T08:02:24;1.60;;;1.50;;
9722;SDS011;4900;49.306;8.500;2023-05-10T08:04:50;1.60;;;1.50;;
9722;SDS011;4900;49.306;8.500;2023-05-10T08:07:16;1.60;;;1.50;;
9722;SDS011;4900;49.306;8.500;2023-05-10T08:09:42;1.90;;;1.70;;
9722;SDS011;4900;49.306;8.500;2023-05-10T08:12:07;1.60;;;1.50;;
9722;SDS011;4900;49.306;8.500;2023-05-10T08:14:33;1.90;;;1.30;;
9722;SDS011;4900;49.306;8.500;2023-05-10T08:16:59;1.30;;;1.20;;
9722;SDS011;4900;49.306;8.500;2023-05-10T08:19:24;1.42;;;1.27;;
9722;SDS011;4900;49.306;8.500;2023-05-10T08:21:49;1.48;;;1.38;;
9722;SDS011;4900;49.306;8.500;2023-05-10T08:24:15;2.10;;;1.35;;
9722;SDS011;4900;49.306;8.500;2023-05-10T08:26:40;1.25;;;1.15;;
9722;SDS011;4900;49.306;8.500;2023-05-10T08:29:06;1.20;;;1.10;;
9722;SDS011;4900;49.306;8.500;2023-05-10T08:31:31;1.40;;;1.30;;
9722;SDS011;4900;49.306;8.500;2023-05-10T08:33:57;1.30;;;1.20;;
9722;SDS011;4900;49.306;8.500;2023-05-10T08:36:22;1.10;;;1.00;;
9722;SDS011;4900;49.306;8.500;2023-05-10T08:38:52;1.50;;;1.27;;
9722;SDS011;4900;49.306;8.500;2023-05-10T08:41:21;1.20;;;1.10;;
9722;SDS011;4900;49.306;8.500;2023-05-10T08:43:52;1.30;;;1.20;;
9722;SDS011;4900;49.306;8.500;2023-05-10T08:46:19;1.45;;;1.35;;
9722;SDS011;4900;49.306;8.500;2023-05-10T08:48:46;1.38;;;1.27;;
9722;SDS011;4900;49.306;8.500;2023-05-10T08:51:19;1.20;;;1.10;;
9722;SDS011;4900;49.306;8.500;2023-05-10T08:53:47;1.30;;;1.20;;
9722;SDS011;4900;49.306;8.500;2023-05-10T08:56:13;1.95;;;1.30;;
9722;SDS011;4900;49.306;8.500;2023-05-10T08:58:40;1.30;;;1.13;;
9722;SDS011;4900;49.306;8.500;2023-05-10T09:01:06;2.60;;;1.30;;
9722;SDS011;4900;49.306;8.500;2023-05-10T09:03:32;1.27;;;1.17;;
9722;SDS011;4900;49.306;8.500;2023-05-10T09:05:58;1.00;;;1.00;;
9722;SDS011;4900;49.306;8.500;2023-05-10T09:08:23;1.48;;;1.10;;
9722;SDS011;4900;49.306;8.500;2023-05-10T09:10:52;2.35;;;1.10;;
9722;SDS011;4900;49.306;8.500;2023-05-10T09:13:19;1.30;;;1.20;;
9722;SDS011;4900;49.306;8.500;2023-05-10T09:15:47;1.55;;;1.20;;
9722;SDS011;4900;49.306;8.500;2023-05-10T09:18:13;1.30;;;1.20;;
9722;SDS011;4900;49.306;8.500;2023-05-10T09:20:38;1.33;;;1.13;;
9722;SDS011;4900;49.306;8.500;2023-05-10T09:23:04;3.00;;;1.13;;
9722;SDS011;4900;49.306;8.500;2023-05-10T09:25:29;1.30;;;1.20;;
9722;SDS011;4900;49.306;8.500;2023-05-10T09:27:55;1.02;;;0.93;;
9722;SDS011;4900;49.306;8.500;2023-05-10T09:30:28;1.20;;;1.10;;
9722;SDS011;4900;49.306;8.500;2023-05-10T09:32:55;1.60;;;1.10;;
9722;SDS011;4900;49.306;8.500;2023-05-10T09:35:22;0.93;;;0.93;;
9722;SDS011;4900;49.306;8.500;2023-05-10T09:37:50;0.98;;;0.90;;
9722;SDS011;4900;49.306;8.500;2023-05-10T09:40:17;1.30;;;1.20;;
9722;SDS011;4900;49.306;8.500;2023-05-10T09:43:06;1.15;;;1.05;;
9722;SDS011;4900;49.306;8.500;2023-05-10T09:45:33;0.93;;;0.93;;
9722;SDS011;4900;49.306;8.500;2023-05-10T09:48:00;0.90;;;0.90;;
9722;SDS011;4900;49.306;8.500;2023-05-10T09:50:27;1.25;;;0.90;;
9722;SDS011;4900;49.306;8.500;2023-05-10T09:55:24;0.90;;;0.90;;
9722;SDS011;4900;49.306;8.500;2023-05-10T09:58:00;0.98;;;0.93;;
9722;SDS011;4900;49.306;8.500;2023-05-10T10:00:34;1.13;;;0.90;;
9722;SDS011;4900;49.306;8.500;2023-05-10T10:03:01;0.90;;;0.90;;
9722;SDS011;4900;49.306;8.500;2023-05-10T10:05:34;1.00;;;1.00;;
9722;SDS011;4900;49.306;8.500;2023-05-10T10:08:04;0.95;;;0.95;;
9722;SDS011;4900;49.306;8.500;2023-05-10T10:10:31;1.02;;;1.00;;
9722;SDS011;4900;49.306;8.500;2023-05-10T10:12:57;0.90;;;0.90;;
9722;SDS011;4900;49.306;8.500;2023-05-10T10:15:23;1.00;;;0.90;;
9722;SDS011;4900;49.306;8.500;2023-05-10T10:17:49;1.00;;;0.90;;
9722;SDS011;4900;49.306;8.500;2023-05-10T10:20:16;1.23;;;1.00;;
9722;SDS011;4900;49.306;8.500;2023-05-10T10:22:42;0.80;;;0.80;;
9722;SDS011;4900;49.306;8.500;2023-05-10T10:25:10;0.65;;;0.65;;
9722;SDS011;4900;49.306;8.500;2023-05-10T10:27:44;0.70;;;0.70;;
9722;SDS011;4900;49.306;8.500;2023-05-10T10:32:55;0.80;;;0.80;;
9722;SDS011;4900;49.306;8.500;2023-05-10T10:35:25;1.05;;;0.93;;
9722;SDS011;4900;49.306;8.500;2023-05-10T10:37:51;0.95;;;0.77;;
9722;SDS011;4900;49.306;8.500;2023-05-10T10:40:32;0.70;;;0.70;;
9722;SDS011;4900;49.306;8.500;2023-05-10T10:43:20;0.82;;;0.80;;
9722;SDS011;4900;49.306;8.500;2023-05-10T10:46:12;0.65;;;0.65;;
9722;SDS011;4900;49.306;8.500;2023-05-10T10:48:39;0.82;;;0.82;;
9722;SDS011;4900;49.306;8.500;2023-05-10T10:51:05;0.80;;;0.80;;
9722;SDS011;4900;49.306;8.500;2023-05-10T10:53:31;1.05;;;0.80;;
9722;SDS011;4900;49.306;8.500;2023-05-10T10:56:07;1.38;;;0.75;;
9722;SDS011;4900;49.306;8.500;2023-05-10T10:58:34;0.80;;;0.80;;
9722;SDS011;4900;49.306;8.500;2023-05-10T11:01:17;2.60;;;0.93;;
9722;SDS011;4900;49.306;8.500;2023-05-10T11:06:30;1.73;;;1.00;;
9722;SDS011;4900;49.306;8.500;2023-05-10T11:08:57;0.95;;;0.90;;
9722;SDS011;4900;49.306;8.500;2023-05-10T11:11:22;0.90;;;0.90;;
9722;SDS011;4900;49.306;8.500;2023-05-10T11:13:48;1.85;;;0.88;;
9722;SDS011;4900;49.306;8.500;2023-05-10T11:16:18;0.90;;;0.88;;
9722;SDS011;4900;49.306;8.500;2023-05-10T11:19:10;1.02;;;0.93;;
9722;SDS011;4900;49.306;8.500;2023-05-10T11:24:29;0.90;;;0.90;;
9722;SDS011;4900;49.306;8.500;2023-05-10T11:26:56;1.17;;;0.93;;
9722;SDS011;4900;49.306;8.500;2023-05-10T11:29:22;1.10;;;1.00;;
9722;SDS011;4900;49.306;8.500;2023-05-10T11:31:48;1.33;;;1.00;;
9722;SDS011;4900;49.306;8.500;2023-05-10T11:36:59;1.88;;;1.20;;
9722;SDS011;4900;49.306;8.500;2023-05-10T11:39:31;1.15;;;1.08;;
9722;SDS011;4900;49.306;8.500;2023-05-10T11:41:58;1.15;;;1.05;;
9722;SDS011;4900;49.306;8.500;2023-05-10T11:44:30;1.20;;;1.10;;
9722;SDS011;4900;49.306;8.500;2023-05-10T11:47:00;1.90;;;1.20;;
9722;SDS011;4900;49.306;8.500;2023-05-10T11:49:26;1.05;;;0.95;;
9722;SDS011;4900;49.306;8.500;2023-05-10T11:51:52;2.03;;;1.30;;
9722;SDS011;4900;49.306;8.500;2023-05-10T11:54:17;2.20;;;1.33;;
9722;SDS011;4900;49.306;8.500;2023-05-10T11:56:43;1.60;;;1.50;;
9722;SDS011;4900;49.306;8.500;2023-05-10T11:59:09;2.97;;;1.30;;
9722;SDS011;4900;49.306;8.500;2023-05-10T12:01:35;1.63;;;1.40;;
9722;SDS011;4900;49.306;8.500;2023-05-10T12:04:01;1.85;;;1.20;;
9722;SDS011;4900;49.306;8.500;2023-05-10T12:06:28;2.10;;;1.27;;
9722;SDS011;4900;49.306;8.500;2023-05-10T12:08:55;1.98;;;1.10;;
9722;SDS011;4900;49.306;8.500;2023-05-10T12:11:24;1.23;;;1.13;;
9722;SDS011;4900;49.306;8.500;2023-05-10T12:13:50;1.67;;;1.00;;
9722;SDS011;4900;49.306;8.500;2023-05-10T12:16:17;1.33;;;1.20;;
9722;SDS011;4900;49.306;8.500;2023-05-10T12:18:45;1.20;;;1.10;;
9722;SDS011;4900;49.306;8.500;2023-05-10T12:21:13;1.98;;;1.00;;
9722;SDS011;4900;49.306;8.500;2023-05-10T12:23:40;1.40;;;1.20;;
9722;SDS011;4900;49.306;8.500;2023-05-10T12:26:06;1.30;;;1.17;;
9722;SDS011;4900;49.306;8.500;2023-05-10T12:28:34;1.13;;;1.00;;
9722;SDS011;4900;49.306;8.500;2023-05-10T12:31:00;1.35;;;1.00;;
9722;SDS011;4900;49.306;8.500;2023-05-10T12:33:26;1.30;;;1.10;;
9722;SDS011;4900;49.306;8.500;2023-05-10T12:36:00;1.10;;;1.00;;
9722;SDS011;4900;49.306;8.500;2023-05-10T12:40:52;1.00;;;0.90;;
9722;SDS011;4900;49.306;8.500;2023-05-10T12:43:17;1.63;;;1.10;;
9722;SDS011;4900;49.306;8.500;2023-05-10T12:45:42;1.10;;;1.00;;
9722;SDS011;4900;49.306;8.500;2023-05-10T12:48:13;0.95;;;0.95;;
9722;SDS011;4900;49.306;8.500;2023-05-10T12:50:38;1.02;;;0.90;;
9722;SDS011;4900;49.306;8.500;2023-05-10T12:53:03;1.58;;;1.00;;
9722;SDS011;4900;49.306;8.500;2023-05-10T12:55:29;0.90;;;0.90;;
9722;SDS011;4900;49.306;8.500;2023-05-10T12:57:54;2.42;;;1.10;;
9722;SDS011;4900;49.306;8.500;2023-05-10T13:00:20;2.90;;;1.10;;
9722;SDS011;4900;49.306;8.500;2023-05-10T13:02:45;1.27;;;1.02;;
9722;SDS011;4900;49.306;8.500;2023-05-10T13:05:11;1.42;;;0.98;;
9722;SDS011;4900;49.306;8.500;2023-05-10T13:07:38;0.80;;;0.80;;
9722;SDS011;4900;49.306;8.500;2023-05-10T13:10:04;2.25;;;1.10;;
9722;SDS011;4900;49.306;8.500;2023-05-10T13:12:32;1.05;;;0.80;;
9722;SDS011;4900;49.306;8.500;2023-05-10T13:14:58;0.90;;;0.90;;
9722;SDS011;4900;49.306;8.500;2023-05-10T13:17:24;1.02;;;0.90;;
9722;SDS011;4900;49.306;8.500;2023-05-10T13:19:50;0.80;;;0.80;;
9722;SDS011;4900;49.306;8.500;2023-05-10T13:22:17;1.00;;;0.90;;
9722;SDS011;4900;49.306;8.500;2023-05-10T13:24:43;1.63;;;1.00;;
9722;SDS011;4900;49.306;8.500;2023-05-10T13:27:08;1.75;;;0.90;;
9722;SDS011;4900;49.306;8.500;2023-05-10T13:29:34;1.60;;;0.82;;
9722;SDS011;4900;49.306;8.500;2023-05-10T13:31:59;0.90;;;0.90;;
9722;SDS011;4900;49.306;8.500;2023-05-10T13:34:26;1.17;;;0.90;;
9722;SDS011;4900;49.306;8.500;2023-05-10T13:36:52;0.80;;;0.80;;
9722;SDS011;4900;49.306;8.500;2023-05-10T13:39:19;1.08;;;0.90;;
9722;SDS011;4900;49.306;8.500;2023-05-10T13:41:45;0.80;;;0.80;;
9722;SDS011;4900;49.306;8.500;2023-05-10T13:44:11;1.23;;;1.00;;
9722;SDS011;4900;49.306;8.500;2023-05-10T13:46:38;0.90;;;0.90;;
9722;SDS011;4900;49.306;8.500;2023-05-10T13:49:03;0.80;;;0.80;;
9722;SDS011;4900;49.306;8.500;2023-05-10T13:51:29;1.27;;;0.90;;
9722;SDS011;4900;49.306;8.500;2023-05-10T13:53:56;1.02;;;0.90;;
9722;SDS011;4900;49.306;8.500;2023-05-10T13:56:22;0.73;;;0.73;;
9722;SDS011;4900;49.306;8.500;2023-05-10T13:58:49;0.80;;;0.80;;
9722;SDS011;4900;49.306;8.500;2023-05-10T14:01:15;1.13;;;0.90;;
9722;SDS011;4900;49.306;8.500;2023-05-10T14:03:41;0.80;;;0.80;;
9722;SDS011;4900;49.306;8.500;2023-05-10T14:06:06;0.80;;;0.80;;
9722;SDS011;4900;49.306;8.500;2023-05-10T14:08:33;1.15;;;0.90;;
9722;SDS011;4900;49.306;8.500;2023-05-10T14:10:59;0.85;;;0.70;;
9722;SDS011;4900;49.306;8.500;2023-05-10T14:13:25;1.83;;;0.82;;
9722;SDS011;4900;49.306;8.500;2023-05-10T14:15:50;0.77;;;0.77;;
9722;SDS011;4900;49.306;8.500;2023-05-10T14:18:16;0.77;;;0.77;;
9722;SDS011;4900;49.306;8.500;2023-05-10T14:20:42;1.10;;;0.80;;
9722;SDS011;4900;49.306;8.500;2023-05-10T14:23:08;0.80;;;0.80;;
9722;SDS011;4900;49.306;8.500;2023-05-10T14:25:33;0.80;;;0.80;;
9722;SDS011;4900;49.306;8.500;2023-05-10T14:27:59;1.25;;;0.90;;
9722;SDS011;4900;49.306;8.500;2023-05-10T14:30:25;1.00;;;0.90;;
9722;SDS011;4900;49.306;8.500;2023-05-10T14:32:50;0.80;;;0.80;;
9722;SDS011;4900;49.306;8.500;2023-05-10T14:35:16;1.02;;;0.90;;
9722;SDS011;4900;49.306;8.500;2023-05-10T14:37:44;1.73;;;0.93;;
9722;SDS011;4900;49.306;8.500;2023-05-10T14:40:10;1.13;;;0.90;;
9722;SDS011;4900;49.306;8.500;2023-05-10T14:42:37;0.80;;;0.80;;
9722;SDS011;4900;49.306;8.500;2023-05-10T14:45:03;0.80;;;0.80;;
9722;SDS011;4900;49.306;8.500;2023-05-10T14:47:29;0.90;;;0.80;;
9722;SDS011;4900;49.306;8.500;2023-05-10T14:49:55;0.80;;;0.80;;
9722;SDS011;4900;49.306;8.500;2023-05-10T14:52:20;0.70;;;0.70;;
9722;SDS011;4900;49.306;8.500;2023-05-10T14:54:46;0.70;;;0.70;;
9722;SDS011;4900;49.306;8.500;2023-05-10T14:57:11;2.35;;;0.85;;
9722;SDS011;4900;49.306;8.500;2023-05-10T14:59:37;0.70;;;0.70;;
9722;SDS011;4900;49.306;8.500;2023-05-10T15:02:02;1.05;;;0.80;;
9722;SDS011;4900;49.306;8.500;2023-05-10T15:04:29;0.68;;;0.68;;
9722;SDS011;4900;49.306;8.500;2023-05-10T15:06:54;0.60;;;0.60;;
9722;SDS011;4900;49.306;8.500;2023-05-10T15:09:24;1.98;;;0.90;;
9722;SDS011;4900;49.306;8.500;2023-05-10T15:11:50;0.70;;;0.70;;
9722;SDS011;4900;49.306;8.500;2023-05-10T15:14:15;0.70;;;0.70;;
9722;SDS011;4900;49.306;8.500;2023-05-10T15:16:41;0.80;;;0.80;;
9722;SDS011;4900;49.306;8.500;2023-05-10T15:19:06;0.80;;;0.70;;
9722;SDS011;4900;49.306;8.500;2023-05-10T15:21:32;0.70;;;0.70;;
9722;SDS011;4900;49.306;8.500;2023-05-10T15:24:04;0.70;;;0.70;;
9722;SDS011;4900;49.306;8.500;2023-05-10T15:26:30;0.90;;;0.80;;
9722;SDS011;4900;49.306;8.500;2023-05-10T15:28:55;0.80;;;0.80;;
9722;SDS011;4900;49.306;8.500;2023-05-10T15:31:20;0.98;;;0.95;;
9722;SDS011;4900;49.306;8.500;2023-05-10T15:33:46;0.73;;;0.73;;
9722;SDS011;4900;49.306;8.500;2023-05-10T15:36:11;0.75;;;0.70;;
9722;SDS011;4900;49.306;8.500;2023-05-10T15:38:37;0.80;;;0.80;;
9722;SDS011;4900;49.306;8.500;2023-05-10T15:41:02;0.77;;;0.75;;
9722;SDS011;4900;49.306;8.500;2023-05-10T15:43:28;0.77;;;0.77;;